sensor_id;sensor_type;location;lat;lon;timestamp;P1;durP1;ratioP1;P2;durP2;ratioP2
78916;SDS011;68315;48.608;11.436;2023-06-04T00:02:09;3.42;;;2.58;;
78916;SDS011;68315;48.608;11.436;2023-06-04T00:04:35;2.97;;;2.30;;
78916;SDS011;68315;48.608;11.436;2023-06-04T00:07:00;3.03;;;2.60;;
78916;SDS011;68315;48.608;11.436;2023-06-04T00:09:25;2.85;;;2.50;;
78916;SDS011;68315;48.608;11.436;2023-06-04T00:11:51;3.20;;;2.35;;
78916;SDS011;68315;48.608;11.436;2023-06-04T00:14:16;3.50;;;3.00;;
78916;SDS011;68315;48.608;11.436;2023-06-04T00:16:42;4.88;;;2.83;;
78916;SDS011;68315;48.608;11.436;2023-06-04T00:19:07;3.90;;;2.45;;
78916;SDS011;68315;48.608;11.436;2023-06-04T00:21:33;6.47;;;2.70;;
78916;SDS011;68315;48.608;11.436;2023-06-04T00:23:59;3.95;;;2.45;;
78916;SDS011;68315;48.608;11.436;2023-06-04T00:26:25;3.03;;;2.10;;
78916;SDS011;68315;48.608;11.436;2023-06-04T00:28:50;2.53;;;2.28;;
78916;SDS011;68315;48.608;11.436;2023-06-04T00:31:15;4.57;;;2.60;;
78916;SDS011;68315;48.608;11.436;2023-06-04T00:33:41;5.50;;;3.28;;
78916;SDS011;68315;48.608;11.436;2023-06-04T00:36:06;3.97;;;2.40;;
78916;SDS011;68315;48.608;11.436;2023-06-04T00:38:32;3.15;;;2.40;;
78916;SDS011;68315;48.608;11.436;2023-06-04T00:40:57;4.45;;;2.70;;
78916;SDS011;68315;48.608;11.436;2023-06-04T00:43:23;12.90;;;3.53;;
78916;SDS011;68315;48.608;11.436;2023-06-04T00:45:50;4.40;;;2.70;;
78916;SDS011;68315;48.608;11.436;2023-06-04T00:48:16;5.25;;;2.45;;
78916;SDS011;68315;48.608;11.436;2023-06-04T00:50:41;2.90;;;2.50;;
78916;SDS011;68315;48.608;11.436;2023-06-04T00:53:07;5.30;;;3.05;;
78916;SDS011;68315;48.608;11.436;2023-06-04T00:55:33;3.78;;;2.35;;
78916;SDS011;68315;48.608;11.436;2023-06-04T00:57:58;2.42;;;2.20;;
78916;SDS011;68315;48.608;11.436;2023-06-04T01:00:25;2.90;;;2.30;;
78916;SDS011;68315;48.608;11.436;2023-06-04T01:02:51;3.50;;;2.47;;
78916;SDS011;68315;48.608;11.436;2023-06-04T01:05:24;3.53;;;2.20;;
78916;SDS011;68315;48.608;11.436;2023-06-04T01:07:54;3.78;;;2.50;;
78916;SDS011;68315;48.608;11.436;2023-06-04T01:10:21;6.57;;;2.90;;
78916;SDS011;68315;48.608;11.436;2023-06-04T01:12:47;4.07;;;2.80;;
78916;SDS011;68315;48.608;11.436;2023-06-04T01:15:12;3.10;;;2.42;;
78916;SDS011;68315;48.608;11.436;2023-06-04T01:17:44;3.50;;;2.25;;
78916;SDS011;68315;48.608;11.436;2023-06-04T01:25:43;3.85;;;2.40;;
78916;SDS011;68315;48.608;11.436;2023-06-04T01:28:14;5.00;;;2.38;;
78916;SDS011;68315;48.608;11.436;2023-06-04T01:30:43;3.63;;;2.85;;
78916;SDS011;68315;48.608;11.436;2023-06-04T01:33:14;3.15;;;2.65;;
78916;SDS011;68315;48.608;11.436;2023-06-04T01:35:41;4.47;;;2.53;;
78916;SDS011;68315;48.608;11.436;2023-06-04T01:38:07;4.28;;;2.70;;
78916;SDS011;68315;48.608;11.436;2023-06-04T01:40:33;3.20;;;2.30;;
78916;SDS011;68315;48.608;11.436;2023-06-04T01:42:59;2.80;;;2.20;;
78916;SDS011;68315;48.608;11.436;2023-06-04T01:45:25;4.10;;;2.17;;
78916;SDS011;68315;48.608;11.436;2023-06-04T01:47:51;2.63;;;2.22;;
78916;SDS011;68315;48.608;11.436;2023-06-04T01:50:17;3.78;;;2.35;;
78916;SDS011;68315;48.608;11.436;2023-06-04T01:52:42;3.00;;;2.53;;
78916;SDS011;68315;48.608;11.436;2023-06-04T01:55:09;4.72;;;2.47;;
78916;SDS011;68315;48.608;11.436;2023-06-04T01:57:37;4.85;;;2.40;;
78916;SDS011;68315;48.608;11.436;2023-06-04T02:00:03;2.95;;;2.40;;
78916;SDS011;68315;48.608;11.436;2023-06-04T02:02:32;3.70;;;2.78;;
78916;SDS011;68315;48.608;11.436;2023-06-04T02:04:58;2.65;;;2.40;;
78916;SDS011;68315;48.608;11.436;2023-06-04T02:07:23;3.38;;;2.15;;
78916;SDS011;68315;48.608;11.436;2023-06-04T02:09:48;3.35;;;2.28;;
78916;SDS011;68315;48.608;11.436;2023-06-04T02:12:15;4.00;;;2.75;;
78916;SDS011;68315;48.608;11.436;2023-06-04T02:14:40;3.20;;;2.45;;
78916;SDS011;68315;48.608;11.436;2023-06-04T02:17:12;3.97;;;2.38;;
78916;SDS011;68315;48.608;11.436;2023-06-04T02:19:41;3.08;;;2.10;;
78916;SDS011;68315;48.608;11.436;2023-06-04T02:22:12;2.58;;;2.22;;
78916;SDS011;68315;48.608;11.436;2023-06-04T02:24:38;4.30;;;3.10;;
78916;SDS011;68315;48.608;11.436;2023-06-04T02:27:04;3.65;;;2.58;;
78916;SDS011;68315;48.608;11.436;2023-06-04T02:29:30;6.53;;;2.50;;
78916;SDS011;68315;48.608;11.436;2023-06-04T02:31:56;2.65;;;2.30;;
78916;SDS011;68315;48.608;11.436;2023-06-04T02:34:21;4.28;;;2.70;;
78916;SDS011;68315;48.608;11.436;2023-06-04T02:36:46;2.45;;;1.92;;
78916;SDS011;68315;48.608;11.436;2023-06-04T02:39:13;3.20;;;2.72;;
78916;SDS011;68315;48.608;11.436;2023-06-04T02:41:39;3.25;;;2.10;;
78916;SDS011;68315;48.608;11.436;2023-06-04T02:44:04;2.63;;;1.92;;
78916;SDS011;68315;48.608;11.436;2023-06-04T02:46:29;2.78;;;1.95;;
78916;SDS011;68315;48.608;11.436;2023-06-04T02:48:54;3.22;;;2.55;;
78916;SDS011;68315;48.608;11.436;2023-06-04T02:51:20;4.88;;;2.30;;
78916;SDS011;68315;48.608;11.436;2023-06-04T02:53:45;4.70;;;2.75;;
78916;SDS011;68315;48.608;11.436;2023-06-04T02:56:11;3.70;;;2.47;;
78916;SDS011;68315;48.608;11.436;2023-06-04T02:58:36;2.58;;;2.35;;
78916;SDS011;68315;48.608;11.436;2023-06-04T03:01:04;2.40;;;2.20;;
78916;SDS011;68315;48.608;11.436;2023-06-04T03:03:30;3.92;;;2.97;;
78916;SDS011;68315;48.608;11.436;2023-06-04T03:05:56;2.50;;;2.30;;
78916;SDS011;68315;48.608;11.436;2023-06-04T03:08:21;3.17;;;2.50;;
78916;SDS011;68315;48.608;11.436;2023-06-04T03:10:47;3.58;;;2.35;;
78916;SDS011;68315;48.608;11.436;2023-06-04T03:13:12;4.93;;;2.60;;
78916;SDS011;68315;48.608;11.436;2023-06-04T03:15:37;2.40;;;2.05;;
78916;SDS011;68315;48.608;11.436;2023-06-04T03:18:04;2.63;;;2.22;;
78916;SDS011;68315;48.608;11.436;2023-06-04T03:20:30;4.45;;;2.67;;
78916;SDS011;68315;48.608;11.436;2023-06-04T03:22:55;2.80;;;2.45;;
78916;SDS011;68315;48.608;11.436;2023-06-04T03:25:20;2.35;;;2.05;;
78916;SDS011;68315;48.608;11.436;2023-06-04T03:27:45;2.60;;;1.98;;
78916;SDS011;68315;48.608;11.436;2023-06-04T03:30:11;2.83;;;2.28;;
78916;SDS011;68315;48.608;11.436;2023-06-04T03:32:36;3.10;;;2.20;;
78916;SDS011;68315;48.608;11.436;2023-06-04T03:35:01;3.25;;;2.25;;
78916;SDS011;68315;48.608;11.436;2023-06-04T03:37:28;2.65;;;2.13;;
78916;SDS011;68315;48.608;11.436;2023-06-04T03:39:53;3.45;;;2.22;;
78916;SDS011;68315;48.608;11.436;2023-06-04T03:42:18;2.63;;;2.25;;
78916;SDS011;68315;48.608;11.436;2023-06-04T03:44:44;3.03;;;2.25;;
78916;SDS011;68315;48.608;11.436;2023-06-04T03:47:09;3.50;;;1.88;;
78916;SDS011;68315;48.608;11.436;2023-06-04T03:49:35;2.97;;;2.10;;
78916;SDS011;68315;48.608;11.436;2023-06-04T03:52:00;3.45;;;2.40;;
78916;SDS011;68315;48.608;11.436;2023-06-04T03:54:25;2.95;;;1.92;;
78916;SDS011;68315;48.608;11.436;2023-06-04T03:56:50;3.38;;;2.20;;
78916;SDS011;68315;48.608;11.436;2023-06-04T03:59:16;4.30;;;2.50;;
78916;SDS011;68315;48.608;11.436;2023-06-04T04:01:41;2.60;;;2.03;;
78916;SDS011;68315;48.608;11.436;2023-06-04T04:04:07;4.53;;;2.33;;
78916;SDS011;68315;48.608;11.436;2023-06-04T04:06:32;7.65;;;2.40;;
78916;SDS011;68315;48.608;11.436;2023-06-04T04:08:58;6.28;;;2.60;;
78916;SDS011;68315;48.608;11.436;2023-06-04T04:11:23;4.40;;;2.30;;
78916;SDS011;68315;48.608;11.436;2023-06-04T04:13:50;3.45;;;2.45;;
78916;SDS011;68315;48.608;11.436;2023-06-04T04:16:15;4.75;;;2.20;;
78916;SDS011;68315;48.608;11.436;2023-06-04T04:18:42;4.65;;;2.00;;
78916;SDS011;68315;48.608;11.436;2023-06-04T04:21:10;6.15;;;2.30;;
78916;SDS011;68315;48.608;11.436;2023-06-04T04:23:37;1.50;;;1.38;;
78916;SDS011;68315;48.608;11.436;2023-06-04T04:26:04;4.63;;;2.33;;
78916;SDS011;68315;48.608;11.436;2023-06-04T04:28:31;6.53;;;2.20;;
78916;SDS011;68315;48.608;11.436;2023-06-04T04:30:57;4.97;;;2.60;;
78916;SDS011;68315;48.608;11.436;2023-06-04T04:33:24;4.63;;;2.38;;
78916;SDS011;68315;48.608;11.436;2023-06-04T04:35:50;3.72;;;2.20;;
78916;SDS011;68315;48.608;11.436;2023-06-04T04:38:17;3.33;;;2.10;;
78916;SDS011;68315;48.608;11.436;2023-06-04T04:40:43;2.35;;;2.05;;
78916;SDS011;68315;48.608;11.436;2023-06-04T04:43:08;3.58;;;2.22;;
78916;SDS011;68315;48.608;11.436;2023-06-04T04:45:33;3.13;;;2.20;;
78916;SDS011;68315;48.608;11.436;2023-06-04T04:47:59;3.35;;;2.20;;
78916;SDS011;68315;48.608;11.436;2023-06-04T04:50:24;4.45;;;2.20;;
78916;SDS011;68315;48.608;11.436;2023-06-04T04:52:49;2.92;;;2.20;;
78916;SDS011;68315;48.608;11.436;2023-06-04T04:55:14;3.00;;;1.98;;
78916;SDS011;68315;48.608;11.436;2023-06-04T04:57:40;2.22;;;1.90;;
78916;SDS011;68315;48.608;11.436;2023-06-04T05:00:05;4.53;;;2.28;;
78916;SDS011;68315;48.608;11.436;2023-06-04T05:02:32;3.95;;;1.90;;
78916;SDS011;68315;48.608;11.436;2023-06-04T05:04:59;3.53;;;2.20;;
78916;SDS011;68315;48.608;11.436;2023-06-04T05:07:24;3.22;;;2.20;;
78916;SDS011;68315;48.608;11.436;2023-06-04T05:09:50;4.75;;;2.20;;
78916;SDS011;68315;48.608;11.436;2023-06-04T05:12:15;2.50;;;2.05;;
78916;SDS011;68315;48.608;11.436;2023-06-04T05:14:41;2.13;;;1.90;;
78916;SDS011;68315;48.608;11.436;2023-06-04T05:17:06;2.15;;;1.58;;
78916;SDS011;68315;48.608;11.436;2023-06-04T05:19:35;3.28;;;2.10;;
78916;SDS011;68315;48.608;11.436;2023-06-04T05:22:00;2.42;;;2.10;;
78916;SDS011;68315;48.608;11.436;2023-06-04T05:24:26;2.15;;;1.88;;
78916;SDS011;68315;48.608;11.436;2023-06-04T05:26:51;1.83;;;1.50;;
78916;SDS011;68315;48.608;11.436;2023-06-04T05:29:16;3.10;;;2.20;;
78916;SDS011;68315;48.608;11.436;2023-06-04T05:31:41;3.55;;;1.80;;
78916;SDS011;68315;48.608;11.436;2023-06-04T05:34:07;2.50;;;1.75;;
78916;SDS011;68315;48.608;11.436;2023-06-04T05:36:33;2.35;;;1.92;;
78916;SDS011;68315;48.608;11.436;2023-06-04T05:38:58;1.92;;;1.77;;
78916;SDS011;68315;48.608;11.436;2023-06-04T05:41:24;4.28;;;1.90;;
78916;SDS011;68315;48.608;11.436;2023-06-04T05:43:51;3.67;;;2.20;;
78916;SDS011;68315;48.608;11.436;2023-06-04T05:46:16;2.88;;;2.20;;
78916;SDS011;68315;48.608;11.436;2023-06-04T05:48:42;3.42;;;2.00;;
78916;SDS011;68315;48.608;11.436;2023-06-04T05:51:07;2.22;;;1.70;;
78916;SDS011;68315;48.608;11.436;2023-06-04T05:53:32;2.03;;;1.60;;
78916;SDS011;68315;48.608;11.436;2023-06-04T05:55:58;2.08;;;1.77;;
78916;SDS011;68315;48.608;11.436;2023-06-04T05:58:23;2.78;;;2.05;;
78916;SDS011;68315;48.608;11.436;2023-06-04T06:00:48;2.25;;;1.80;;
78916;SDS011;68315;48.608;11.436;2023-06-04T06:03:15;4.00;;;1.95;;
78916;SDS011;68315;48.608;11.436;2023-06-04T06:05:41;3.22;;;2.03;;
78916;SDS011;68315;48.608;11.436;2023-06-04T06:08:07;3.10;;;1.77;;
78916;SDS011;68315;48.608;11.436;2023-06-04T06:10:32;2.97;;;1.95;;
78916;SDS011;68315;48.608;11.436;2023-06-04T06:12:57;1.60;;;1.50;;
78916;SDS011;68315;48.608;11.436;2023-06-04T06:15:23;3.15;;;2.00;;
78916;SDS011;68315;48.608;11.436;2023-06-04T06:17:48;3.80;;;2.00;;
78916;SDS011;68315;48.608;11.436;2023-06-04T06:20:14;5.00;;;2.13;;
78916;SDS011;68315;48.608;11.436;2023-06-04T06:22:42;3.85;;;2.05;;
78916;SDS011;68315;48.608;11.436;2023-06-04T06:25:07;2.50;;;1.70;;
78916;SDS011;68315;48.608;11.436;2023-06-04T06:27:33;3.22;;;1.58;;
78916;SDS011;68315;48.608;11.436;2023-06-04T06:29:58;4.05;;;2.05;;
78916;SDS011;68315;48.608;11.436;2023-06-04T06:32:24;4.45;;;2.05;;
78916;SDS011;68315;48.608;11.436;2023-06-04T06:34:49;5.25;;;2.13;;
78916;SDS011;68315;48.608;11.436;2023-06-04T06:37:15;2.22;;;1.70;;
78916;SDS011;68315;48.608;11.436;2023-06-04T06:39:40;3.72;;;1.80;;
78916;SDS011;68315;48.608;11.436;2023-06-04T06:42:05;3.60;;;2.38;;
78916;SDS011;68315;48.608;11.436;2023-06-04T06:44:31;2.20;;;2.00;;
78916;SDS011;68315;48.608;11.436;2023-06-04T06:46:56;2.72;;;2.35;;
78916;SDS011;68315;48.608;11.436;2023-06-04T06:49:21;6.33;;;2.20;;
78916;SDS011;68315;48.608;11.436;2023-06-04T06:51:46;2.58;;;2.25;;
78916;SDS011;68315;48.608;11.436;2023-06-04T06:54:14;2.92;;;1.80;;
78916;SDS011;68315;48.608;11.436;2023-06-04T06:56:40;3.83;;;2.20;;
78916;SDS011;68315;48.608;11.436;2023-06-04T06:59:05;5.88;;;2.45;;
78916;SDS011;68315;48.608;11.436;2023-06-04T07:01:33;5.10;;;2.28;;
78916;SDS011;68315;48.608;11.436;2023-06-04T07:03:58;3.97;;;2.15;;
78916;SDS011;68315;48.608;11.436;2023-06-04T07:06:24;2.97;;;2.15;;
78916;SDS011;68315;48.608;11.436;2023-06-04T07:08:57;2.55;;;2.35;;
78916;SDS011;68315;48.608;11.436;2023-06-04T07:11:22;4.45;;;2.30;;
78916;SDS011;68315;48.608;11.436;2023-06-04T07:13:51;4.43;;;2.33;;
78916;SDS011;68315;48.608;11.436;2023-06-04T07:16:19;3.50;;;2.30;;
78916;SDS011;68315;48.608;11.436;2023-06-04T07:18:47;2.95;;;1.95;;
78916;SDS011;68315;48.608;11.436;2023-06-04T07:21:12;4.32;;;2.30;;
78916;SDS011;68315;48.608;11.436;2023-06-04T07:23:38;3.90;;;2.30;;
78916;SDS011;68315;48.608;11.436;2023-06-04T07:26:03;3.90;;;2.23;;
78916;SDS011;68315;48.608;11.436;2023-06-04T07:28:28;2.72;;;2.00;;
78916;SDS011;68315;48.608;11.436;2023-06-04T07:30:53;2.40;;;1.90;;
78916;SDS011;68315;48.608;11.436;2023-06-04T07:33:19;3.55;;;2.47;;
78916;SDS011;68315;48.608;11.436;2023-06-04T07:35:45;4.80;;;2.63;;
78916;SDS011;68315;48.608;11.436;2023-06-04T07:38:10;3.83;;;2.63;;
78916;SDS011;68315;48.608;11.436;2023-06-04T07:40:37;2.80;;;2.35;;
78916;SDS011;68315;48.608;11.436;2023-06-04T07:43:03;2.08;;;1.70;;
78916;SDS011;68315;48.608;11.436;2023-06-04T07:45:28;4.50;;;2.20;;
78916;SDS011;68315;48.608;11.436;2023-06-04T07:47:55;4.28;;;2.55;;
78916;SDS011;68315;48.608;11.436;2023-06-04T07:50:20;5.00;;;2.40;;
78916;SDS011;68315;48.608;11.436;2023-06-04T07:52:46;3.58;;;2.22;;
78916;SDS011;68315;48.608;11.436;2023-06-04T07:55:11;4.28;;;2.00;;
78916;SDS011;68315;48.608;11.436;2023-06-04T07:57:37;3.80;;;1.98;;
78916;SDS011;68315;48.608;11.436;2023-06-04T08:00:02;3.75;;;2.38;;
78916;SDS011;68315;48.608;11.436;2023-06-04T08:02:29;5.10;;;2.40;;
78916;SDS011;68315;48.608;11.436;2023-06-04T08:04:55;3.65;;;2.20;;
78916;SDS011;68315;48.608;11.436;2023-06-04T08:07:20;4.53;;;2.70;;
78916;SDS011;68315;48.608;11.436;2023-06-04T08:09:45;3.33;;;2.45;;
78916;SDS011;68315;48.608;11.436;2023-06-04T08:12:10;5.35;;;2.22;;
78916;SDS011;68315;48.608;11.436;2023-06-04T08:14:36;3.15;;;2.30;;
78916;SDS011;68315;48.608;11.436;2023-06-04T08:17:01;3.60;;;1.90;;
78916;SDS011;68315;48.608;11.436;2023-06-04T08:19:27;5.80;;;2.17;;
78916;SDS011;68315;48.608;11.436;2023-06-04T09:09:17;4.72;;;2.30;;
78916;SDS011;68315;48.608;11.436;2023-06-04T09:11:53;2.80;;;2.35;;
78916;SDS011;68315;48.608;11.436;2023-06-04T09:14:20;4.55;;;2.40;;
78916;SDS011;68315;48.608;11.436;2023-06-04T09:16:49;7.88;;;2.65;;
78916;SDS011;68315;48.608;11.436;2023-06-04T09:19:17;4.80;;;2.40;;
78916;SDS011;68315;48.608;11.436;2023-06-04T09:21:53;3.65;;;2.13;;
78916;SDS011;68315;48.608;11.436;2023-06-04T09:24:20;4.18;;;2.88;;
78916;SDS011;68315;48.608;11.436;2023-06-04T09:26:51;4.15;;;2.50;;
78916;SDS011;68315;48.608;11.436;2023-06-04T09:29:17;3.92;;;2.55;;
78916;SDS011;68315;48.608;11.436;2023-06-04T09:31:46;3.05;;;2.65;;
78916;SDS011;68315;48.608;11.436;2023-06-04T09:34:12;4.95;;;2.63;;
78916;SDS011;68315;48.608;11.436;2023-06-04T09:36:38;5.35;;;2.40;;
78916;SDS011;68315;48.608;11.436;2023-06-04T09:39:15;5.70;;;2.97;;
78916;SDS011;68315;48.608;11.436;2023-06-04T09:41:41;3.38;;;2.58;;
78916;SDS011;68315;48.608;11.436;2023-06-04T09:44:06;3.33;;;2.40;;
78916;SDS011;68315;48.608;11.436;2023-06-04T09:46:35;4.03;;;2.72;;
78916;SDS011;68315;48.608;11.436;2023-06-04T09:49:01;4.63;;;2.42;;
78916;SDS011;68315;48.608;11.436;2023-06-04T09:51:28;4.75;;;2.63;;
78916;SDS011;68315;48.608;11.436;2023-06-04T09:53:57;5.72;;;2.65;;
78916;SDS011;68315;48.608;11.436;2023-06-04T09:56:24;4.30;;;2.80;;
78916;SDS011;68315;48.608;11.436;2023-06-04T09:58:53;2.88;;;2.22;;
78916;SDS011;68315;48.608;11.436;2023-06-04T10:01:19;3.83;;;2.40;;
78916;SDS011;68315;48.608;11.436;2023-06-04T10:03:46;4.65;;;2.30;;
78916;SDS011;68315;48.608;11.436;2023-06-04T10:06:14;6.22;;;2.47;;
78916;SDS011;68315;48.608;11.436;2023-06-04T10:08:42;4.40;;;2.55;;
78916;SDS011;68315;48.608;11.436;2023-06-04T10:11:10;4.05;;;2.60;;
78916;SDS011;68315;48.608;11.436;2023-06-04T10:13:42;5.00;;;2.50;;
78916;SDS011;68315;48.608;11.436;2023-06-04T10:16:12;4.00;;;3.00;;
78916;SDS011;68315;48.608;11.436;2023-06-04T10:18:38;4.28;;;2.63;;
78916;SDS011;68315;48.608;11.436;2023-06-04T10:21:04;2.72;;;2.33;;
78916;SDS011;68315;48.608;11.436;2023-06-04T10:23:31;2.78;;;2.40;;
78916;SDS011;68315;48.608;11.436;2023-06-04T10:25:56;3.15;;;2.70;;
78916;SDS011;68315;48.608;11.436;2023-06-04T10:28:22;11.00;;;2.90;;
78916;SDS011;68315;48.608;11.436;2023-06-04T10:30:48;3.63;;;2.78;;
78916;SDS011;68315;48.608;11.436;2023-06-04T10:33:19;5.63;;;3.20;;
78916;SDS011;68315;48.608;11.436;2023-06-04T10:35:45;3.65;;;2.60;;
78916;SDS011;68315;48.608;11.436;2023-06-04T10:38:11;3.78;;;2.60;;
78916;SDS011;68315;48.608;11.436;2023-06-04T10:40:38;4.75;;;2.63;;
78916;SDS011;68315;48.608;11.436;2023-06-04T10:43:10;5.20;;;2.90;;
78916;SDS011;68315;48.608;11.436;2023-06-04T10:45:37;4.43;;;2.67;;
78916;SDS011;68315;48.608;11.436;2023-06-04T10:48:03;4.28;;;2.78;;
78916;SDS011;68315;48.608;11.436;2023-06-04T10:50:31;4.22;;;2.92;;
78916;SDS011;68315;48.608;11.436;2023-06-04T10:52:57;5.40;;;2.88;;
78916;SDS011;68315;48.608;11.436;2023-06-04T10:55:23;3.30;;;2.85;;
78916;SDS011;68315;48.608;11.436;2023-06-04T10:57:53;4.00;;;2.65;;
78916;SDS011;68315;48.608;11.436;2023-06-04T11:00:19;4.55;;;2.50;;
78916;SDS011;68315;48.608;11.436;2023-06-04T11:02:52;3.95;;;2.58;;
78916;SDS011;68315;48.608;11.436;2023-06-04T11:05:18;3.57;;;2.80;;
78916;SDS011;68315;48.608;11.436;2023-06-04T11:07:46;3.97;;;2.70;;
78916;SDS011;68315;48.608;11.436;2023-06-04T11:10:12;4.25;;;2.80;;
78916;SDS011;68315;48.608;11.436;2023-06-04T11:12:42;3.63;;;2.75;;
78916;SDS011;68315;48.608;11.436;2023-06-04T11:15:08;4.43;;;2.72;;
78916;SDS011;68315;48.608;11.436;2023-06-04T11:17:34;2.67;;;2.42;;
78916;SDS011;68315;48.608;11.436;2023-06-04T11:20:00;6.50;;;3.00;;
78916;SDS011;68315;48.608;11.436;2023-06-04T11:22:25;5.78;;;3.20;;
78916;SDS011;68315;48.608;11.436;2023-06-04T11:24:56;5.03;;;3.15;;
78916;SDS011;68315;48.608;11.436;2023-06-04T11:27:24;5.40;;;3.17;;
78916;SDS011;68315;48.608;11.436;2023-06-04T11:29:53;4.18;;;3.08;;
78916;SDS011;68315;48.608;11.436;2023-06-04T11:32:26;5.43;;;2.88;;
78916;SDS011;68315;48.608;11.436;2023-06-04T11:35:02;5.97;;;2.97;;
78916;SDS011;68315;48.608;11.436;2023-06-04T11:37:29;4.35;;;3.03;;
78916;SDS011;68315;48.608;11.436;2023-06-04T11:39:57;5.50;;;3.00;;
78916;SDS011;68315;48.608;11.436;2023-06-04T11:42:23;3.35;;;3.00;;
78916;SDS011;68315;48.608;11.436;2023-06-04T11:44:48;3.30;;;2.70;;
78916;SDS011;68315;48.608;11.436;2023-06-04T11:47:13;4.20;;;2.78;;
78916;SDS011;68315;48.608;11.436;2023-06-04T11:49:40;2.60;;;2.40;;
78916;SDS011;68315;48.608;11.436;2023-06-04T11:52:08;3.78;;;2.70;;
78916;SDS011;68315;48.608;11.436;2023-06-04T11:54:33;4.03;;;2.95;;
78916;SDS011;68315;48.608;11.436;2023-06-04T11:57:03;9.73;;;3.45;;
78916;SDS011;68315;48.608;11.436;2023-06-04T11:59:30;4.45;;;2.83;;
78916;SDS011;68315;48.608;11.436;2023-06-04T12:01:56;4.18;;;3.20;;
78916;SDS011;68315;48.608;11.436;2023-06-04T12:04:22;2.90;;;2.60;;
78916;SDS011;68315;48.608;11.436;2023-06-04T12:07:05;5.53;;;3.10;;
78916;SDS011;68315;48.608;11.436;2023-06-04T12:09:33;3.42;;;2.88;;
78916;SDS011;68315;48.608;11.436;2023-06-04T12:12:05;3.50;;;2.63;;
78916;SDS011;68315;48.608;11.436;2023-06-04T12:14:33;4.85;;;3.50;;
78916;SDS011;68315;48.608;11.436;2023-06-04T12:17:05;5.60;;;4.20;;
78916;SDS011;68315;48.608;11.436;2023-06-04T12:19:32;4.82;;;3.90;;
78916;SDS011;68315;48.608;11.436;2023-06-04T12:22:01;3.53;;;3.10;;
78916;SDS011;68315;48.608;11.436;2023-06-04T12:24:28;4.35;;;3.30;;
78916;SDS011;68315;48.608;11.436;2023-06-04T12:27:03;4.10;;;3.70;;
78916;SDS011;68315;48.608;11.436;2023-06-04T12:29:31;5.18;;;3.88;;
78916;SDS011;68315;48.608;11.436;2023-06-04T12:32:09;3.63;;;3.10;;
78916;SDS011;68315;48.608;11.436;2023-06-04T12:34:41;6.85;;;3.35;;
78916;SDS011;68315;48.608;11.436;2023-06-04T12:37:06;4.10;;;3.10;;
78916;SDS011;68315;48.608;11.436;2023-06-04T12:39:33;4.13;;;2.85;;
78916;SDS011;68315;48.608;11.436;2023-06-04T12:41:59;3.33;;;2.88;;
78916;SDS011;68315;48.608;11.436;2023-06-04T12:44:25;6.07;;;3.20;;
78916;SDS011;68315;48.608;11.436;2023-06-04T12:46:50;5.10;;;3.30;;
78916;SDS011;68315;48.608;11.436;2023-06-04T12:49:15;5.30;;;3.58;;
78916;SDS011;68315;48.608;11.436;2023-06-04T12:51:41;4.00;;;3.03;;
78916;SDS011;68315;48.608;11.436;2023-06-04T12:54:06;6.35;;;3.13;;
78916;SDS011;68315;48.608;11.436;2023-06-04T12:56:31;2.63;;;2.40;;
78916;SDS011;68315;48.608;11.436;2023-06-04T12:58:57;2.75;;;2.50;;
78916;SDS011;68315;48.608;11.436;2023-06-04T13:01:22;2.88;;;2.40;;
78916;SDS011;68315;48.608;11.436;2023-06-04T13:03:47;3.30;;;2.67;;
78916;SDS011;68315;48.608;11.436;2023-06-04T13:06:13;3.70;;;2.72;;
78916;SDS011;68315;48.608;11.436;2023-06-04T13:08:38;4.18;;;2.90;;
78916;SDS011;68315;48.608;11.436;2023-06-04T13:11:04;3.65;;;2.97;;
78916;SDS011;68315;48.608;11.436;2023-06-04T13:13:30;2.88;;;2.58;;
78916;SDS011;68315;48.608;11.436;2023-06-04T13:15:55;2.80;;;2.58;;
78916;SDS011;68315;48.608;11.436;2023-06-04T13:18:21;3.10;;;2.80;;
78916;SDS011;68315;48.608;11.436;2023-06-04T13:20:47;3.63;;;2.70;;
78916;SDS011;68315;48.608;11.436;2023-06-04T13:23:15;3.40;;;2.67;;
78916;SDS011;68315;48.608;11.436;2023-06-04T13:25:41;4.20;;;3.28;;
78916;SDS011;68315;48.608;11.436;2023-06-04T13:28:06;3.30;;;2.83;;
78916;SDS011;68315;48.608;11.436;2023-06-04T13:30:33;6.32;;;3.20;;
78916;SDS011;68315;48.608;11.436;2023-06-04T13:33:01;4.55;;;2.95;;
78916;SDS011;68315;48.608;11.436;2023-06-04T13:35:26;3.75;;;3.20;;
78916;SDS011;68315;48.608;11.436;2023-06-04T13:37:51;3.80;;;3.30;;
78916;SDS011;68315;48.608;11.436;2023-06-04T13:40:17;3.90;;;3.10;;
78916;SDS011;68315;48.608;11.436;2023-06-04T13:42:42;4.38;;;3.05;;
78916;SDS011;68315;48.608;11.436;2023-06-04T13:45:08;4.03;;;3.28;;
78916;SDS011;68315;48.608;11.436;2023-06-04T13:47:33;4.40;;;3.10;;
78916;SDS011;68315;48.608;11.436;2023-06-04T13:49:59;4.45;;;3.50;;
78916;SDS011;68315;48.608;11.436;2023-06-04T13:52:24;4.18;;;2.97;;
78916;SDS011;68315;48.608;11.436;2023-06-04T13:54:49;4.07;;;3.03;;
78916;SDS011;68315;48.608;11.436;2023-06-04T13:57:16;3.85;;;2.95;;
78916;SDS011;68315;48.608;11.436;2023-06-04T13:59:41;4.45;;;3.05;;
78916;SDS011;68315;48.608;11.436;2023-06-04T14:02:07;3.47;;;2.80;;
78916;SDS011;68315;48.608;11.436;2023-06-04T14:04:32;3.83;;;3.30;;
78916;SDS011;68315;48.608;11.436;2023-06-04T14:06:58;4.07;;;3.47;;
78916;SDS011;68315;48.608;11.436;2023-06-04T14:09:23;4.45;;;3.30;;
78916;SDS011;68315;48.608;11.436;2023-06-04T14:11:48;3.03;;;2.78;;
78916;SDS011;68315;48.608;11.436;2023-06-04T14:14:16;3.83;;;3.25;;
78916;SDS011;68315;48.608;11.436;2023-06-04T14:16:42;2.85;;;2.63;;
78916;SDS011;68315;48.608;11.436;2023-06-04T14:19:09;3.53;;;3.05;;
78916;SDS011;68315;48.608;11.436;2023-06-04T14:21:34;3.60;;;3.20;;
78916;SDS011;68315;48.608;11.436;2023-06-04T14:24:00;4.18;;;3.05;;
78916;SDS011;68315;48.608;11.436;2023-06-04T14:26:26;4.95;;;3.58;;
78916;SDS011;68315;48.608;11.436;2023-06-04T14:28:51;3.80;;;2.83;;
78916;SDS011;68315;48.608;11.436;2023-06-04T14:31:17;4.40;;;3.10;;
78916;SDS011;68315;48.608;11.436;2023-06-04T14:33:42;7.45;;;3.30;;
78916;SDS011;68315;48.608;11.436;2023-06-04T14:36:07;3.63;;;2.63;;
78916;SDS011;68315;48.608;11.436;2023-06-04T14:38:32;3.90;;;3.00;;
78916;SDS011;68315;48.608;11.436;2023-06-04T14:40:58;3.27;;;2.97;;
78916;SDS011;68315;48.608;11.436;2023-06-04T14:43:24;3.75;;;2.97;;
78916;SDS011;68315;48.608;11.436;2023-06-04T14:45:49;4.30;;;2.55;;
78916;SDS011;68315;48.608;11.436;2023-06-04T14:48:15;4.37;;;3.00;;
78916;SDS011;68315;48.608;11.436;2023-06-04T14:50:40;3.38;;;3.08;;
78916;SDS011;68315;48.608;11.436;2023-06-04T14:53:05;5.53;;;3.17;;
78916;SDS011;68315;48.608;11.436;2023-06-04T14:55:32;3.40;;;3.10;;
78916;SDS011;68315;48.608;11.436;2023-06-04T14:57:59;3.85;;;3.17;;
78916;SDS011;68315;48.608;11.436;2023-06-04T15:00:24;3.53;;;2.95;;
78916;SDS011;68315;48.608;11.436;2023-06-04T15:02:50;3.92;;;2.88;;
78916;SDS011;68315;48.608;11.436;2023-06-04T15:05:15;3.83;;;2.88;;
78916;SDS011;68315;48.608;11.436;2023-06-04T15:07:40;3.90;;;3.25;;
78916;SDS011;68315;48.608;11.436;2023-06-04T15:10:06;4.57;;;3.33;;
78916;SDS011;68315;48.608;11.436;2023-06-04T15:12:32;3.53;;;3.05;;
78916;SDS011;68315;48.608;11.436;2023-06-04T15:14:58;2.65;;;2.42;;
78916;SDS011;68315;48.608;11.436;2023-06-04T15:17:24;4.30;;;2.83;;
78916;SDS011;68315;48.608;11.436;2023-06-04T15:19:50;4.38;;;3.42;;
78916;SDS011;68315;48.608;11.436;2023-06-04T15:22:15;5.07;;;3.15;;